CYUA

Shingle Point Airport

Yukon Territory, Canada
METAR CYUA 211500Z AUTO 22004KT ////SM //// NCD M27/M31 A3026
Observed Flight Rules
Apr-21 @ 15:00 UTC (41 minutes ago)
Wind Clouds
220° at 4 knots
  • Clear skies
Temperatures Readings
Current -27°C / -17°F
Dewpoint -31°C / -24°F
Humidity 69%
Altimeter 30.26" Hg
Pressure 1025 hPa
Elevation 38
METAR CYUA 211500Z AUTO 22004KT ////SM //// NCD M27/M31 A3026
Observed Flight Rules
Apr-21 @ 15:00 UTC
(41 minutes ago)
Wind
220° at 4 knots
Clouds
  • Clear skies
Temperature Dewpoint
-27°C / -17°F -31°C / -24°F
Humidity Altimeter Pressure
69% 30.26" Hg 1025 hPa